createdAt,value
2018-07-04T00:02:42.881Z,39.20
2018-07-04T00:07:57.552Z,39.20
2018-07-04T00:18:21.197Z,39.50
2018-07-04T00:23:36.079Z,39.30
2018-07-04T00:28:50.932Z,39.20
2018-07-04T00:34:05.700Z,39.40
2018-07-04T00:39:20.752Z,39.40
2018-07-04T00:44:35.479Z,39.40
2018-07-04T00:49:50.389Z,39.40
2018-07-04T00:55:05.160Z,39.20
2018-07-04T01:00:20.013Z,39.10
2018-07-04T01:05:34.751Z,38.90
2018-07-04T01:10:49.861Z,38.80
2018-07-04T01:16:04.873Z,38.60
2018-07-04T01:21:19.750Z,38.70
2018-07-04T01:26:35.503Z,38.40
2018-07-04T01:31:50.401Z,38.40
2018-07-04T01:37:05.115Z,38.50
2018-07-04T01:42:19.842Z,38.40
2018-07-04T01:47:34.840Z,38.40
2018-07-04T01:52:49.658Z,38.30
2018-07-04T02:03:13.404Z,38.40
2018-07-04T02:08:28.266Z,38.20
2018-07-04T02:18:52.060Z,38.40
2018-07-04T02:24:06.972Z,38.30
2018-07-04T02:29:21.827Z,38.50
2018-07-04T02:34:36.827Z,39.10
2018-07-04T02:39:51.983Z,39.10
2018-07-04T02:45:06.929Z,39.20
2018-07-04T02:50:21.537Z,39.60
2018-07-04T02:55:36.424Z,39.60
2018-07-04T03:00:51.392Z,39.60
2018-07-04T03:06:06.183Z,39.80
2018-07-04T03:11:21.206Z,40.20
2018-07-04T03:21:44.888Z,40.00
2018-07-04T03:26:59.761Z,40.00
2018-07-04T03:32:14.779Z,40.00
2018-07-04T03:37:29.805Z,40.00
2018-07-04T03:42:44.765Z,40.10
2018-07-04T03:47:59.824Z,40.20
2018-07-04T03:53:14.792Z,40.20
2018-07-04T03:58:29.641Z,40.00
2018-07-04T04:03:44.564Z,40.40
2018-07-04T04:08:59.357Z,40.10
2018-07-04T04:14:14.035Z,40.40
2018-07-04T04:19:34.185Z,40.10
2018-07-04T04:24:49.022Z,39.70
2018-07-04T04:30:03.755Z,39.50
2018-07-04T04:35:18.709Z,39.70
2018-07-04T04:40:33.755Z,39.70
2018-07-04T04:45:48.616Z,39.40
2018-07-04T04:51:03.416Z,39.20
2018-07-04T04:56:18.183Z,39.30
2018-07-04T05:01:33.597Z,39.20
2018-07-04T05:06:48.480Z,39.10
2018-07-04T05:12:03.289Z,39.10
2018-07-04T05:22:27.137Z,39.30
2018-07-04T05:27:42.193Z,39.40
2018-07-04T05:32:57.113Z,39.40
2018-07-04T05:38:11.997Z,39.70
2018-07-04T05:43:26.852Z,39.80
2018-07-04T05:48:41.604Z,39.90
2018-07-04T05:53:56.314Z,40.00
2018-07-04T05:59:11.208Z,39.90
2018-07-04T06:04:26.026Z,39.80
2018-07-04T06:09:40.813Z,39.80
2018-07-04T06:14:55.614Z,39.80
2018-07-04T06:20:10.437Z,39.60
2018-07-04T06:25:25.264Z,39.20
2018-07-04T06:30:40.241Z,39.20
2018-07-04T06:35:55.014Z,39.30
2018-07-04T06:40:57.536Z,39.30
2018-07-04T06:46:00.031Z,39.40
2018-07-04T06:51:02.524Z,39.50
2018-07-04T07:01:08.257Z,40.00
2018-07-04T07:06:23.096Z,39.40
2018-07-04T07:11:37.925Z,39.60
2018-07-04T07:16:52.884Z,39.70
2018-07-04T07:22:07.620Z,39.80
2018-07-04T07:27:22.285Z,39.90
2018-07-04T07:32:37.277Z,40.00
2018-07-04T07:37:52.102Z,40.10
2018-07-04T07:43:06.807Z,40.00
2018-07-04T07:48:21.584Z,39.20
2018-07-04T07:53:36.451Z,39.50
2018-07-04T07:58:51.573Z,39.80
2018-07-04T08:04:06.517Z,39.60
2018-07-04T08:09:21.521Z,39.60
2018-07-04T08:14:36.444Z,39.50
2018-07-04T08:19:51.388Z,39.60
2018-07-04T08:25:05.996Z,39.30
2018-07-04T08:30:21.464Z,37.70
2018-07-04T08:35:36.276Z,37.80
2018-07-04T08:40:51.436Z,36.70
2018-07-04T08:46:06.466Z,37.50
2018-07-04T08:51:21.657Z,37.80
2018-07-04T08:56:36.804Z,37.30
2018-07-04T09:01:51.823Z,37.30
2018-07-04T09:07:06.637Z,37.30
2018-07-04T09:12:21.405Z,37.00
2018-07-04T09:17:36.562Z,37.30
2018-07-04T09:22:51.301Z,37.60
2018-07-04T09:28:06.188Z,37.90
2018-07-04T09:33:21.112Z,36.90
2018-07-04T09:38:36.373Z,37.20
2018-07-04T09:43:51.266Z,37.30
2018-07-04T09:49:06.069Z,37.20
2018-07-04T09:54:20.804Z,37.30
2018-07-04T09:59:35.715Z,37.20
2018-07-04T10:04:50.553Z,37.20
2018-07-04T10:10:05.341Z,37.40
2018-07-04T10:15:20.068Z,37.40
2018-07-04T10:20:34.816Z,37.40
2018-07-04T10:25:49.614Z,37.20
2018-07-04T10:31:04.484Z,37.00
2018-07-04T10:36:19.391Z,36.80
2018-07-04T10:41:34.203Z,36.90
2018-07-04T10:46:49.024Z,36.90
2018-07-04T10:52:04.344Z,37.10
2018-07-04T10:57:19.192Z,37.10
2018-07-04T11:02:34.164Z,37.30
2018-07-04T11:07:49.093Z,37.60
2018-07-04T11:13:04.156Z,37.80
2018-07-04T11:18:18.976Z,38.10
2018-07-04T11:23:33.869Z,38.90
2018-07-04T11:28:48.740Z,39.20
2018-07-04T11:34:03.964Z,39.80
2018-07-04T11:39:18.873Z,40.00
2018-07-04T11:44:33.837Z,41.20
2018-07-04T11:49:36.372Z,41.10
2018-07-04T11:54:38.943Z,41.30
2018-07-04T11:59:41.512Z,41.60
2018-07-04T12:04:56.407Z,42.70
2018-07-04T12:09:58.918Z,42.60
2018-07-04T12:15:01.435Z,43.10
2018-07-04T12:25:06.852Z,44.20
2018-07-04T12:30:09.420Z,44.40
2018-07-04T12:35:11.937Z,44.50
2018-07-04T12:40:14.713Z,44.30
2018-07-04T12:45:17.177Z,44.60
2018-07-04T12:50:25.590Z,45.10
2018-07-04T12:55:41.808Z,44.60
2018-07-04T13:00:56.549Z,44.60
2018-07-04T13:06:11.376Z,44.70
2018-07-04T13:11:26.353Z,44.90
2018-07-04T13:16:41.144Z,44.80
2018-07-04T13:21:55.752Z,45.50
2018-07-04T13:27:10.621Z,45.20
2018-07-04T13:32:25.514Z,45.30
2018-07-04T13:37:40.433Z,45.40
2018-07-04T13:42:55.266Z,45.40
2018-07-04T13:53:18.996Z,45.50
2018-07-04T13:58:33.920Z,45.60
2018-07-04T14:03:48.883Z,45.60
2018-07-04T14:09:03.886Z,45.50
2018-07-04T14:14:18.504Z,45.60
2018-07-04T14:19:33.388Z,45.50
2018-07-04T14:29:56.877Z,47.90
2018-07-04T14:35:11.573Z,46.50
2018-07-04T14:40:26.971Z,47.10
2018-07-04T14:45:41.972Z,45.90
2018-07-04T14:56:05.841Z,46.30
2018-07-04T15:01:20.891Z,44.60
2018-07-04T15:06:35.841Z,44.50
2018-07-04T15:22:08.725Z,44.60
2018-07-04T15:27:23.756Z,44.10
2018-07-04T15:32:38.663Z,44.20
2018-07-04T15:37:53.449Z,44.80
2018-07-04T15:43:08.289Z,44.60
2018-07-04T15:54:57.931Z,42.40
2018-07-04T15:58:53.570Z,42.50
2018-07-04T16:00:18.242Z,43.50
2018-07-04T16:01:02.971Z,43.00
2018-07-04T16:01:47.701Z,43.30
2018-07-04T16:02:32.323Z,44.00
2018-07-04T16:03:44.864Z,43.10
2018-07-04T16:07:01.344Z,42.30
2018-07-04T16:07:52.604Z,43.80
2018-07-04T16:09:50.410Z,42.50
2018-07-04T16:11:42.150Z,43.50
2018-07-04T16:17:03.697Z,46.80
2018-07-04T16:22:25.217Z,43.30
2018-07-04T16:33:02.275Z,42.70
2018-07-04T16:38:23.575Z,42.90
2018-07-04T16:43:45.070Z,42.80
2018-07-04T16:49:06.514Z,42.80
2018-07-04T16:54:28.084Z,42.30
2018-07-04T17:05:05.105Z,41.70
2018-07-04T17:10:26.528Z,40.80
2018-07-04T17:15:48.152Z,39.60
2018-07-04T17:21:09.470Z,39.60
2018-07-04T17:26:31.058Z,39.40
2018-07-04T17:31:52.993Z,39.70
2018-07-04T17:37:14.413Z,39.80
2018-07-04T17:42:35.892Z,39.90
2018-07-04T17:47:57.451Z,40.10
2018-07-04T17:53:18.879Z,40.60
2018-07-04T17:58:40.223Z,43.70
2018-07-04T18:04:01.606Z,44.20
2018-07-04T18:09:23.136Z,41.00
2018-07-04T18:14:44.462Z,40.90
2018-07-04T18:20:06.348Z,41.70
2018-07-04T18:25:27.789Z,41.00
2018-07-04T18:30:49.326Z,42.10
2018-07-04T18:36:10.702Z,42.40
2018-07-04T18:41:32.205Z,42.40
2018-07-04T18:46:53.713Z,42.10
2018-07-04T18:52:15.185Z,42.10
2018-07-04T18:57:36.818Z,42.00
2018-07-04T19:02:58.293Z,41.90
2018-07-04T19:08:19.707Z,42.00
2018-07-04T19:13:41.415Z,42.20
2018-07-04T19:19:05.286Z,42.50
2018-07-04T19:24:26.794Z,41.70
2018-07-04T19:29:48.348Z,40.70
2018-07-04T19:35:09.893Z,41.20
2018-07-04T19:40:31.239Z,40.90
2018-07-04T19:51:08.512Z,41.20
2018-07-04T19:56:29.885Z,42.50
2018-07-04T20:01:51.199Z,42.50
2018-07-04T20:07:12.485Z,41.30
2018-07-04T20:12:34.065Z,41.10
2018-07-04T20:17:55.542Z,41.10
2018-07-04T20:23:16.914Z,40.60
2018-07-04T20:28:38.250Z,40.60
2018-07-04T20:34:00.039Z,40.80
2018-07-04T20:39:21.543Z,41.30
2018-07-04T20:44:42.927Z,40.80
2018-07-04T20:55:19.724Z,40.90
2018-07-04T21:00:41.780Z,41.10
2018-07-04T21:06:03.294Z,40.60
2018-07-04T21:11:24.689Z,41.10
2018-07-04T21:22:02.051Z,41.40
2018-07-04T21:27:23.486Z,41.50
2018-07-04T21:32:44.785Z,41.70
2018-07-04T21:38:06.222Z,41.90
2018-07-04T21:43:27.537Z,42.10
2018-07-04T21:48:49.228Z,42.30
2018-07-04T21:54:10.749Z,42.40
2018-07-04T21:59:32.577Z,42.40
2018-07-04T22:04:54.066Z,42.50
2018-07-04T22:10:15.334Z,42.60
2018-07-04T22:15:36.714Z,42.90
2018-07-04T22:20:58.166Z,43.10
2018-07-04T22:26:19.656Z,43.20
2018-07-04T22:31:41.010Z,43.40
2018-07-04T22:42:18.124Z,43.60
2018-07-04T22:52:54.994Z,43.70
2018-07-04T22:58:16.477Z,43.70
2018-07-04T23:03:37.822Z,43.80
2018-07-04T23:08:59.392Z,44.30
2018-07-04T23:14:20.845Z,44.40
2018-07-04T23:19:42.271Z,44.60
2018-07-04T23:25:03.598Z,44.40
2018-07-04T23:30:25.417Z,44.80
2018-07-04T23:35:46.766Z,45.00
2018-07-04T23:46:23.984Z,44.80
2018-07-04T23:51:45.421Z,45.00
2018-07-04T23:57:06.678Z,45.10
